ADDS METAR Data INFO
IDs: Format: Raw Decoded Include TAF

Data at: 0200 UTC 17 Oct 2017

KDRM 170153Z AUTO 22006KT 10SM BKN040 10/04 A3009 RMK AO2 T01030039
KDRM 170134Z AUTO 22006KT 10SM SCT120 10/04 A3009 RMK AO2 T01010038
KDRM 170113Z AUTO 21007KT 10SM SCT034 SCT045 BKN120 10/04 A3009 RMK AO2 T01010039
KDRM 170053Z AUTO 22005KT 10SM SCT031 SCT037 11/04 A3010 RMK AO2 T01050037
KDRM 170034Z AUTO 22004KT 10SM SCT035 SCT110 10/03 A3010 RMK AO2 T01030033
KDRM 170013Z AUTO 22005KT 10SM SCT035 SCT043 SCT110 10/03 A3011 RMK AO2 T01020031
KDRM 162353Z AUTO 22005KT 10SM SCT037 SCT043 BKN110 10/03 A3011 RMK AO2 T01020030 10112 20091
KDRM 162334Z AUTO 21005KT 10SM SCT036 SCT042 BKN120 11/03 A3011 RMK AO2 T01050026
KDRM 162313Z AUTO 21005KT 10SM SCT038 BKN048 10/03 A3011 RMK AO2 T01040028
KDRM 162253Z AUTO 21004KT 10SM SCT040 BKN050 10/03 A3012 RMK AO2 T01030026
KDRM 162234Z AUTO 24004KT 10SM SCT042 SCT055 10/03 A3012 RMK AO2 T01040026
KDRM 162213Z AUTO 25004KT 10SM SCT042 SCT048 11/03 A3013 RMK AO2 T01060029
KDRM 162153Z AUTO 00000KT 10SM SCT042 SCT048 10/05 A3013 RMK AO2 T01040045
KDRM 162134Z AUTO 21006KT 10SM CLR 11/04 A3014 RMK AO2 T01100043
KDRM 162113Z AUTO 21008KT 10SM CLR 11/05 A3014 RMK AO2 T01110045
KDRM 162053Z AUTO 20007KT 10SM CLR 11/05 A3014 RMK AO2 T01110046
KDRM 162034Z AUTO 20009KT 10SM SCT060 11/05 A3015 RMK AO2 T01100045
KDRM 162013Z AUTO 22009KT 10SM BKN060 11/05 A3015 RMK AO2 T01120049
KDRM 161953Z AUTO 21005KT 10SM SCT040 BKN060 OVC070 10/06 A3015 RMK AO2 T00990058
KDRM 161934Z AUTO 22005KT 10SM -RA SCT031 BKN039 OVC049 09/05 A3016 RMK AO2 T00920048
KDRM 161913Z AUTO 23005KT 10SM RA BKN033 OVC039 10/03 A3016 RMK AO2 T00980029
KDRM 161853Z AUTO 23003KT 10SM SCT033 BKN039 OVC050 10/03 A3016 RMK AO2 T01000025
KDRM 161834Z AUTO 20008G14KT 10SM SCT039 BKN050 OVC070 10/02 A3016 RMK AO2 T01020021
KDRM 161813Z AUTO 21008KT 10SM SCT031 SCT045 OVC070 10/02 A3017 RMK AO2 T01020021
KDRM 161753Z AUTO 20010KT 10SM SCT031 SCT042 SCT048 11/02 A3017 RMK AO2 T01090024 10109 21020
KDRM 161734Z AUTO 17008KT 10SM CLR 11/02 A3018 RMK AO2 T01080021
KDRM 161713Z AUTO 21010KT 160V240 10SM CLR 10/02 A3019 RMK AO2 T01030022
KDRM 161653Z AUTO 20010G15KT 10SM CLR 10/02 A3020 RMK AO2 T01010020
KDRM 161634Z AUTO 21007KT 10SM CLR 10/02 A3021 RMK AO2 T00970019
KDRM 161613Z AUTO 22006KT 10SM CLR 10/02 A3021 RMK AO2 T01000019
KDRM 161553Z AUTO 19008KT 160V220 10SM CLR 10/02 A3021 RMK AO2 T00960018
KDRM 161534Z AUTO 20008KT 10SM CLR 09/02 A3022 RMK AO2 T00920016
KDRM 161513Z AUTO 19008KT 10SM CLR 09/01 A3022 RMK AO2 T00880014
KDRM 161454Z AUTO 19007KT 10SM CLR 09/01 A3022 RMK AO2 T00850013
KDRM 161433Z AUTO 21006KT 10SM CLR 08/01 A3022 RMK AO2 T00820010
KDRM 161413Z AUTO 21007KT 10SM CLR 08/01 A3023 RMK AO2 T00790014
KDRM 161354Z AUTO 00000KT 10SM CLR 06/01 A3022 RMK AO2 T00610014
KDRM 161333Z AUTO 00000KT 10SM CLR 03/01 A3023 RMK AO2 T00250010
KDRM 161313Z AUTO 00000KT 10SM CLR 01/M01 A3023 RMK AO2 T00051006
KDRM 161254Z AUTO 00000KT 10SM CLR 00/M01 A3022 RMK AO2 T10051015
KDRM 161233Z AUTO 00000KT 10SM CLR M02/M03 A3022 RMK AO2 T10181027
KDRM 161213Z AUTO 00000KT 10SM CLR M02/M03 A3022 RMK AO2 T10161026
KDRM 161154Z AUTO 00000KT 10SM CLR M02/M03 A3022 RMK AO2 70003 T10171026 10022 21020
KDRM 161133Z AUTO 00000KT 10SM SCT120 M02/M03 A3022 RMK AO2 T10171026
KDRM 161113Z AUTO 00000KT 10SM SCT120 M02/M02 A3022 RMK AO2 T10171025
KDRM 161054Z AUTO 00000KT 10SM CLR M02/M03 A3021 RMK AO2 T10181026
KDRM 161033Z AUTO 00000KT 10SM CLR M02/M02 A3021 RMK AO2 T10171025
KDRM 161013Z AUTO 00000KT 10SM CLR M02/M03 A3020 RMK AO2 T10191026
KDRM 160954Z AUTO 00000KT 10SM SCT042 M02/M02 A3020 RMK AO2 T10161025
KDRM 160933Z AUTO 00000KT 10SM BKN040 M02/M03 A3019 RMK AO2 T10171026
KDRM 160913Z AUTO 00000KT 10SM SCT044 M02/M03 A3019 RMK AO2 T10171026
KDRM 160854Z AUTO 00000KT 10SM SCT044 M01/M02 A3018 RMK AO2 T10141024
KDRM 160833Z AUTO 00000KT 10SM CLR M01/M02 A3018 RMK AO2 T10121022
KDRM 160813Z AUTO 00000KT 10SM SCT048 M01/M02 A3018 RMK AO2 T10111023
KDRM 160754Z AUTO 00000KT 10SM SCT050 M01/M02 A3018 RMK AO2 T10121023
KDRM 160733Z AUTO 00000KT 10SM CLR M01/M02 A3018 RMK AO2 T10121025
KDRM 160713Z AUTO 00000KT 10SM SCT050 M01/M03 A3017 RMK AO2 T10101026
KDRM 160654Z AUTO 00000KT 10SM SCT050 00/M03 A3018 RMK AO2 T10041028
KDRM 160633Z AUTO 00000KT 10SM SCT050 00/M03 A3017 RMK AO2 T00011027
KDRM 160613Z AUTO 00000KT 10SM CLR 01/M03 A3017 RMK AO2 T00081035
KDRM 160554Z AUTO 00000KT 10SM CLR 02/M04 A3016 RMK AO2 T00231039 10063 20023 401120023
KDRM 160533Z AUTO 00000KT 10SM CLR 03/M04 A3017 RMK AO2 T00271039
KDRM 160513Z AUTO 01003KT 10SM CLR 03/M04 A3017 RMK AO2 T00321041
KDRM 160454Z AUTO 35006KT 10SM CLR 04/M04 A3016 RMK AO2 T00351040
KDRM 160433Z AUTO 33003KT 10SM CLR 04/M03 A3016 RMK AO2 T00361035
KDRM 160413Z AUTO 34006KT 10SM SCT027 SCT034 SCT044 04/M02 A3015 RMK AO2 T00371022
KDRM 160354Z AUTO 34004KT 10SM BKN027 BKN034 BKN044 04/M01 A3015 RMK AO2 T00401009
KDRM 160333Z AUTO 33003KT 10SM SCT028 SCT050 04/M02 A3014 RMK AO2 T00401020
KDRM 160313Z AUTO 35007G15KT 10SM BKN050 05/M02 A3013 RMK AO2 T00451021
KDRM 160254Z AUTO 36009G16KT 10SM OVC050 05/M02 A3013 RMK AO2 T00471024
KDRM 160233Z AUTO 34007KT 310V010 10SM SCT026 SCT032 OVC050 05/00 A3012 RMK AO2 T00481003
KDRM 160213Z AUTO 33005KT 10SM BKN050 05/M01 A3011 RMK AO2 T00491007
KDRM 160154Z AUTO 34006KT 10SM SCT022 SCT030 SCT037 05/00 A3010 RMK AO2 T00481001
KDRM 160133Z AUTO 34006KT 10SM SCT020 SCT030 SCT037 05/01 A3008 RMK AO2 T00500010
KDRM 160113Z AUTO 34006KT 10SM SCT037 SCT048 05/01 A3007 RMK AO2 T00520008
KDRM 160054Z AUTO 33007G14KT 10SM SCT043 BKN050 06/01 A3006 RMK AO2 T00550009
KDRM 160033Z AUTO 32009G14KT 10SM SCT042 BKN050 06/01 A3005 RMK AO2 T00600005
KDRM 160013Z AUTO 32005KT 10SM CLR 06/01 A3003 RMK AO2 T00600009
KDRM 152353Z AUTO 34008G16KT 10SM SCT025 SCT033 BKN039 07/01 A3002 RMK AO2 T00650010 10079 20062
KDRM 152333Z AUTO 32007KT 290V350 10SM OVC037 07/02 A3001 RMK AO2 T00670015
KDRM 152314Z AUTO 34005KT 10SM SCT031 OVC037 07/02 A2999 RMK AO2 T00650015
KDRM 152253Z AUTO 34006KT 10SM SCT024 OVC031 07/02 A2998 RMK AO2 T00670015
KDRM 152233Z AUTO 34006G18KT 10SM BKN025 OVC029 07/02 A2997 RMK AO2 T00700018
KDRM 152214Z AUTO 32006G15KT 10SM OVC025 07/02 A2996 RMK AO2 T00700021
KDRM 152153Z AUTO 33008G16KT 10SM OVC025 07/02 A2994 RMK AO2 T00710018
KDRM 152133Z AUTO 33008G15KT 300V360 10SM BKN024 BKN031 OVC070 08/02 A2992 RMK AO2 T00760022
KDRM 152114Z AUTO 32007KT 290V350 10SM SCT024 BKN055 OVC070 08/03 A2992 RMK AO2 T00770026
KDRM 152053Z AUTO 34009G15KT 10SM BKN024 OVC055 07/02 A2989 RMK AO2 T00730024
KDRM 152033Z AUTO 34010G18KT 320V020 10SM BKN022 OVC027 07/03 A2987 RMK AO2 T00730027
KDRM 152014Z AUTO 34008G15KT 300V360 10SM SCT023 BKN027 OVC065 08/03 A2985 RMK AO2 T00750030
KDRM 151953Z AUTO 34007G16KT 10SM BKN025 OVC065 07/03 A2985 RMK AO2 T00710029
KDRM 151933Z AUTO 33010G16KT 310V020 10SM OVC024 07/03 A2983 RMK AO2 T00720033
KDRM 151914Z AUTO 33007G18KT 280V350 10SM OVC024 07/03 A2981 RMK AO2 T00680030
KDRM 151853Z AUTO 33008G19KT 290V360 10SM -DZ OVC024 07/03 A2979 RMK AO2 T00650030
KDRM 151833Z AUTO 34012G18KT 310V010 7SM RA OVC024 06/03 A2976 RMK AO2 T00630033
KDRM 151814Z AUTO 34011G22KT 5SM DZ BKN021 OVC028 06/03 A2975 RMK AO2 T00620030
KDRM 151753Z AUTO 35008G17KT 10SM OVC021 07/03 A2973 RMK AO2 60003 T00660031 10098 20066
KDRM 151733Z AUTO 35013G19KT 5SM -DZ BKN017 OVC024 07/04 A2970 RMK AO2 T00660043
KDRM 151714Z AUTO 35012G22KT 4SM -RA OVC019 07/04 A2967 RMK AO2 T00670041
KDRM 151653Z AUTO 36012G18KT 10SM SCT012 OVC020 07/04 A2966 RMK AO2 T00690041
KDRM 151633Z AUTO 36012G17KT 7SM SCT010 BKN016 OVC020 07/05 A2965 RMK AO2 T00670048
KDRM 151614Z AUTO 36013G23KT 3SM DZ BKN013 OVC020 07/05 A2962 RMK AO2 T00690050
KDRM 151553Z AUTO 36014G18KT 4SM -DZ OVC019 08/05 A2962 RMK AO2 T00750049
KDRM 151533Z AUTO 36012G18KT 10SM OVC017 08/05 A2961 RMK AO2 T00780049
KDRM 151514Z AUTO 01009KT 10SM OVC015 08/06 A2958 RMK AO2 T00800059
KDRM 151453Z AUTO 01011G17KT 10SM OVC015 08/06 A2956 RMK AO2 60003 T00810060
KDRM 151433Z AUTO 01010G18KT 10SM OVC015 08/07 A2954 RMK AO2 T00800065
KDRM 151414Z AUTO 01010G17KT 4SM -DZ OVC013 08/07 A2955 RMK AO2 T00810067